sensor_id;sensor_type;location;lat;lon;timestamp;pressure;altitude;pressure_sealevel;temperature;humidity
72210;BME280;60113;48.762;12.302;2023-04-30T00:02:13;97434.53;;;7.29;77.26
72210;BME280;60113;48.762;12.302;2023-04-30T00:04:39;97431.00;;;7.30;75.00
72210;BME280;60113;48.762;12.302;2023-04-30T00:07:04;97433.06;;;7.39;89.40
72210;BME280;60113;48.762;12.302;2023-04-30T00:09:30;97433.59;;;7.44;91.61
72210;BME280;60113;48.762;12.302;2023-04-30T00:11:55;97436.22;;;7.44;89.82
72210;BME280;60113;48.762;12.302;2023-04-30T00:14:21;97436.88;;;7.48;88.61
72210;BME280;60113;48.762;12.302;2023-04-30T00:16:46;97435.75;;;7.52;88.17
72210;BME280;60113;48.762;12.302;2023-04-30T00:19:12;97435.66;;;7.54;87.57
72210;BME280;60113;48.762;12.302;2023-04-30T00:21:37;97433.88;;;7.54;84.92
72210;BME280;60113;48.762;12.302;2023-04-30T00:24:03;97430.25;;;7.57;85.35
72210;BME280;60113;48.762;12.302;2023-04-30T00:26:28;97437.16;;;7.58;80.87
72210;BME280;60113;48.762;12.302;2023-04-30T00:28:54;97434.56;;;7.58;77.94
72210;BME280;60113;48.762;12.302;2023-04-30T00:31:19;97438.94;;;7.57;74.27
72210;BME280;60113;48.762;12.302;2023-04-30T00:33:45;97435.56;;;7.55;80.30
72210;BME280;60113;48.762;12.302;2023-04-30T00:36:10;97438.94;;;7.57;82.82
72210;BME280;60113;48.762;12.302;2023-04-30T00:38:36;97437.34;;;7.55;79.01
72210;BME280;60113;48.762;12.302;2023-04-30T00:41:01;97437.25;;;7.56;84.10
72210;BME280;60113;48.762;12.302;2023-04-30T00:43:27;97436.13;;;7.60;86.94
72210;BME280;60113;48.762;12.302;2023-04-30T00:45:52;97437.06;;;7.59;86.03
72210;BME280;60113;48.762;12.302;2023-04-30T00:48:18;97436.97;;;7.61;84.95
72210;BME280;60113;48.762;12.302;2023-04-30T00:50:43;97442.13;;;7.62;86.23
72210;BME280;60113;48.762;12.302;2023-04-30T00:53:12;97448.06;;;7.65;86.13
72210;BME280;60113;48.762;12.302;2023-04-30T00:55:39;97444.63;;;7.64;86.44
72210;BME280;60113;48.762;12.302;2023-04-30T00:58:06;97446.41;;;7.63;76.95
72210;BME280;60113;48.762;12.302;2023-04-30T01:00:32;97455.91;;;7.65;86.11
72210;BME280;60113;48.762;12.302;2023-04-30T01:02:59;97454.25;;;7.63;85.68
72210;BME280;60113;48.762;12.302;2023-04-30T01:05:25;97455.09;;;7.64;86.06
72210;BME280;60113;48.762;12.302;2023-04-30T01:07:51;97455.75;;;7.68;87.11
72210;BME280;60113;48.762;12.302;2023-04-30T01:10:18;97454.81;;;7.69;85.05
72210;BME280;60113;48.762;12.302;2023-04-30T01:13:11;97451.25;;;7.70;82.41
72210;BME280;60113;48.762;12.302;2023-04-30T01:15:44;97457.44;;;7.69;81.01
72210;BME280;60113;48.762;12.302;2023-04-30T01:18:16;97460.25;;;7.66;78.89
72210;BME280;60113;48.762;12.302;2023-04-30T01:20:47;97457.81;;;7.62;77.80
72210;BME280;60113;48.762;12.302;2023-04-30T01:26:09;97472.94;;;7.57;82.57
72210;BME280;60113;48.762;12.302;2023-04-30T01:28:36;97466.03;;;7.56;80.82
72210;BME280;60113;48.762;12.302;2023-04-30T01:31:02;97466.94;;;7.55;76.49
72210;BME280;60113;48.762;12.302;2023-04-30T01:33:27;97474.88;;;7.54;79.88
72210;BME280;60113;48.762;12.302;2023-04-30T01:41:44;97469.66;;;7.54;80.77
72210;BME280;60113;48.762;12.302;2023-04-30T01:44:44;97475.06;;;7.50;80.33
72210;BME280;60113;48.762;12.302;2023-04-30T01:47:38;97482.28;;;7.47;80.56
72210;BME280;60113;48.762;12.302;2023-04-30T01:50:32;97485.16;;;7.42;79.86
72210;BME280;60113;48.762;12.302;2023-04-30T01:53:05;97487.09;;;7.38;80.51
72210;BME280;60113;48.762;12.302;2023-04-30T01:55:40;97490.84;;;7.34;76.60
72210;BME280;60113;48.762;12.302;2023-04-30T01:58:11;97481.50;;;7.30;75.39
72210;BME280;60113;48.762;12.302;2023-04-30T02:00:37;97483.34;;;7.28;76.36
72210;BME280;60113;48.762;12.302;2023-04-30T02:03:02;97487.81;;;7.26;74.86
72210;BME280;60113;48.762;12.302;2023-04-30T02:05:28;97499.22;;;7.25;78.23
72210;BME280;60113;48.762;12.302;2023-04-30T02:07:53;97495.13;;;7.21;77.60
72210;BME280;60113;48.762;12.302;2023-04-30T02:10:24;97500.44;;;7.19;79.40
72210;BME280;60113;48.762;12.302;2023-04-30T02:12:51;97502.38;;;7.16;78.14
72210;BME280;60113;48.762;12.302;2023-04-30T02:15:16;97502.47;;;7.14;77.03
72210;BME280;60113;48.762;12.302;2023-04-30T02:17:42;97501.69;;;7.12;79.86
72210;BME280;60113;48.762;12.302;2023-04-30T02:20:08;97508.72;;;7.11;79.81
72210;BME280;60113;48.762;12.302;2023-04-30T02:22:34;97504.50;;;7.09;78.59
72210;BME280;60113;48.762;12.302;2023-04-30T02:25:00;97511.59;;;7.07;78.91
72210;BME280;60113;48.762;12.302;2023-04-30T02:27:25;97509.88;;;7.06;77.91
72210;BME280;60113;48.762;12.302;2023-04-30T02:29:52;97512.59;;;7.04;80.10
72210;BME280;60113;48.762;12.302;2023-04-30T02:32:18;97524.84;;;7.04;82.92
72210;BME280;60113;48.762;12.302;2023-04-30T02:34:43;97519.69;;;7.02;79.59
72210;BME280;60113;48.762;12.302;2023-04-30T02:37:09;97521.53;;;7.00;79.56
72210;BME280;60113;48.762;12.302;2023-04-30T02:39:35;97518.06;;;6.99;80.21
72210;BME280;60113;48.762;12.302;2023-04-30T02:42:00;97510.31;;;6.98;77.00
72210;BME280;60113;48.762;12.302;2023-04-30T02:44:26;97516.50;;;6.97;78.03
72210;BME280;60113;48.762;12.302;2023-04-30T02:46:51;97524.34;;;6.97;78.68
72210;BME280;60113;48.762;12.302;2023-04-30T02:49:17;97532.00;;;7.00;79.39
72210;BME280;60113;48.762;12.302;2023-04-30T02:51:42;97522.41;;;7.00;80.36
72210;BME280;60113;48.762;12.302;2023-04-30T02:54:08;97514.56;;;7.00;78.81
72210;BME280;60113;48.762;12.302;2023-04-30T02:56:33;97517.16;;;7.00;77.07
72210;BME280;60113;48.762;12.302;2023-04-30T02:58:59;97518.00;;;7.01;80.67
72210;BME280;60113;48.762;12.302;2023-04-30T03:01:25;97511.00;;;7.02;82.90
72210;BME280;60113;48.762;12.302;2023-04-30T03:03:50;97509.97;;;7.04;78.46
72210;BME280;60113;48.762;12.302;2023-04-30T03:06:16;97520.44;;;7.04;78.17
72210;BME280;60113;48.762;12.302;2023-04-30T03:08:41;97517.00;;;7.04;77.15
72210;BME280;60113;48.762;12.302;2023-04-30T03:11:08;97526.69;;;7.02;79.09
72210;BME280;60113;48.762;12.302;2023-04-30T03:13:33;97524.25;;;6.98;78.62
72210;BME280;60113;48.762;12.302;2023-04-30T03:16:00;97527.03;;;6.95;75.28
72210;BME280;60113;48.762;12.302;2023-04-30T03:18:27;97523.75;;;6.92;73.86
72210;BME280;60113;48.762;12.302;2023-04-30T03:20:54;97525.53;;;6.91;76.98
72210;BME280;60113;48.762;12.302;2023-04-30T03:23:19;97525.53;;;6.91;83.70
72210;BME280;60113;48.762;12.302;2023-04-30T03:25:45;97518.50;;;6.92;85.83
72210;BME280;60113;48.762;12.302;2023-04-30T03:28:11;97520.78;;;6.98;89.25
72210;BME280;60113;48.762;12.302;2023-04-30T03:30:36;97521.28;;;7.05;90.72
72210;BME280;60113;48.762;12.302;2023-04-30T03:33:02;97517.38;;;7.12;91.30
72210;BME280;60113;48.762;12.302;2023-04-30T03:35:30;97512.66;;;7.19;91.88
72210;BME280;60113;48.762;12.302;2023-04-30T03:37:56;97511.53;;;7.23;92.10
72210;BME280;60113;48.762;12.302;2023-04-30T03:40:22;97511.34;;;7.26;91.31
72210;BME280;60113;48.762;12.302;2023-04-30T03:42:47;97513.97;;;7.26;91.22
72210;BME280;60113;48.762;12.302;2023-04-30T03:45:12;97503.31;;;7.29;91.84
72210;BME280;60113;48.762;12.302;2023-04-30T03:47:38;97504.28;;;7.28;90.62
72210;BME280;60113;48.762;12.302;2023-04-30T03:50:04;97507.66;;;7.30;91.04
72210;BME280;60113;48.762;12.302;2023-04-30T03:52:29;97511.25;;;7.28;88.68
72210;BME280;60113;48.762;12.302;2023-04-30T03:54:56;97511.94;;;7.31;89.55
72210;BME280;60113;48.762;12.302;2023-04-30T03:57:21;97511.00;;;7.32;89.28
72210;BME280;60113;48.762;12.302;2023-04-30T03:59:48;97506.63;;;7.33;88.95
72210;BME280;60113;48.762;12.302;2023-04-30T04:02:14;97510.91;;;7.34;88.68
72210;BME280;60113;48.762;12.302;2023-04-30T04:04:39;97515.19;;;7.35;88.13
72210;BME280;60113;48.762;12.302;2023-04-30T04:07:05;97506.44;;;7.36;89.56
72210;BME280;60113;48.762;12.302;2023-04-30T04:09:32;97515.31;;;7.33;87.78
72210;BME280;60113;48.762;12.302;2023-04-30T04:11:57;97515.31;;;7.33;88.30
72210;BME280;60113;48.762;12.302;2023-04-30T04:14:23;97512.69;;;7.33;87.80
72210;BME280;60113;48.762;12.302;2023-04-30T04:16:48;97516.22;;;7.32;84.77
72210;BME280;60113;48.762;12.302;2023-04-30T04:19:13;97514.53;;;7.31;83.35
72210;BME280;60113;48.762;12.302;2023-04-30T04:21:39;97517.72;;;7.36;88.42
72210;BME280;60113;48.762;12.302;2023-04-30T04:24:04;97520.41;;;7.35;87.32
72210;BME280;60113;48.762;12.302;2023-04-30T04:26:34;97519.50;;;7.36;86.52
72210;BME280;60113;48.762;12.302;2023-04-30T04:29:00;97522.13;;;7.36;83.52
72210;BME280;60113;48.762;12.302;2023-04-30T04:31:26;97522.94;;;7.36;81.77
72210;BME280;60113;48.762;12.302;2023-04-30T04:33:52;97529.88;;;7.37;81.62
72210;BME280;60113;48.762;12.302;2023-04-30T04:36:23;97537.03;;;7.34;79.14
72210;BME280;60113;48.762;12.302;2023-04-30T04:38:48;97534.53;;;7.32;76.95
72210;BME280;60113;48.762;12.302;2023-04-30T04:41:14;97543.38;;;7.30;77.24
72210;BME280;60113;48.762;12.302;2023-04-30T04:43:39;97540.78;;;7.30;77.16
72210;BME280;60113;48.762;12.302;2023-04-30T04:46:06;97536.50;;;7.29;76.51
72210;BME280;60113;48.762;12.302;2023-04-30T04:48:33;97543.31;;;7.31;77.50
72210;BME280;60113;48.762;12.302;2023-04-30T04:50:58;97542.28;;;7.34;79.71
72210;BME280;60113;48.762;12.302;2023-04-30T04:53:24;97542.00;;;7.38;80.97
72210;BME280;60113;48.762;12.302;2023-04-30T04:55:49;97535.66;;;7.43;82.22
72210;BME280;60113;48.762;12.302;2023-04-30T04:58:15;97531.94;;;7.47;85.15
72210;BME280;60113;48.762;12.302;2023-04-30T05:00:40;97535.28;;;7.49;84.92
72210;BME280;60113;48.762;12.302;2023-04-30T05:03:06;97537.47;;;7.57;85.27
72210;BME280;60113;48.762;12.302;2023-04-30T05:05:31;97550.25;;;7.61;84.90
72210;BME280;60113;48.762;12.302;2023-04-30T05:07:56;97550.56;;;7.71;83.67
72210;BME280;60113;48.762;12.302;2023-04-30T05:10:22;97539.81;;;7.76;83.19
72210;BME280;60113;48.762;12.302;2023-04-30T05:12:47;97544.59;;;7.84;81.52
72210;BME280;60113;48.762;12.302;2023-04-30T05:15:16;97547.78;;;7.89;81.96
72210;BME280;60113;48.762;12.302;2023-04-30T05:17:41;97549.00;;;7.98;81.61
72210;BME280;60113;48.762;12.302;2023-04-30T05:20:10;97551.78;;;8.09;80.79
72210;BME280;60113;48.762;12.302;2023-04-30T05:22:37;97548.59;;;8.19;80.88
72210;BME280;60113;48.762;12.302;2023-04-30T05:25:02;97554.22;;;8.27;82.39
72210;BME280;60113;48.762;12.302;2023-04-30T05:27:31;97558.03;;;8.36;82.09
72210;BME280;60113;48.762;12.302;2023-04-30T05:29:56;97557.56;;;8.44;84.23
72210;BME280;60113;48.762;12.302;2023-04-30T05:32:22;97559.88;;;8.48;85.15
72210;BME280;60113;48.762;12.302;2023-04-30T05:34:47;97551.94;;;8.50;85.09
72210;BME280;60113;48.762;12.302;2023-04-30T05:37:13;97563.16;;;8.52;84.71
72210;BME280;60113;48.762;12.302;2023-04-30T05:39:41;97562.16;;;8.55;83.41
72210;BME280;60113;48.762;12.302;2023-04-30T05:42:06;97565.25;;;8.61;83.78
72210;BME280;60113;48.762;12.302;2023-04-30T05:44:31;97565.56;;;8.70;83.20
72210;BME280;60113;48.762;12.302;2023-04-30T05:46:57;97566.78;;;8.79;82.56
72210;BME280;60113;48.762;12.302;2023-04-30T05:49:22;97563.38;;;8.91;82.10
72210;BME280;60113;48.762;12.302;2023-04-30T05:51:48;97569.63;;;9.03;81.60
72210;BME280;60113;48.762;12.302;2023-04-30T05:54:13;97566.50;;;9.11;79.71
72210;BME280;60113;48.762;12.302;2023-04-30T05:56:39;97570.84;;;9.25;79.71
72210;BME280;60113;48.762;12.302;2023-04-30T05:59:04;97575.19;;;9.39;78.85
72210;BME280;60113;48.762;12.302;2023-04-30T06:01:30;97571.84;;;9.50;79.06
72210;BME280;60113;48.762;12.302;2023-04-30T06:03:55;97570.91;;;9.64;78.65
72210;BME280;60113;48.762;12.302;2023-04-30T06:06:21;97566.63;;;9.76;78.78
72210;BME280;60113;48.762;12.302;2023-04-30T06:08:46;97572.31;;;9.83;78.29
72210;BME280;60113;48.762;12.302;2023-04-30T06:11:11;97569.25;;;9.89;78.34
72210;BME280;60113;48.762;12.302;2023-04-30T06:13:38;97571.25;;;9.98;78.25
72210;BME280;60113;48.762;12.302;2023-04-30T06:16:06;97569.66;;;10.09;78.52
72210;BME280;60113;48.762;12.302;2023-04-30T06:18:32;97570.69;;;10.19;78.61
72210;BME280;60113;48.762;12.302;2023-04-30T06:20:58;97574.16;;;10.33;78.53
72210;BME280;60113;48.762;12.302;2023-04-30T06:23:23;97572.56;;;10.43;77.51
72210;BME280;60113;48.762;12.302;2023-04-30T06:25:58;97574.69;;;10.51;76.09
72210;BME280;60113;48.762;12.302;2023-04-30T06:28:23;97574.84;;;10.61;76.03
72210;BME280;60113;48.762;12.302;2023-04-30T06:30:50;97582.50;;;10.77;76.39
72210;BME280;60113;48.762;12.302;2023-04-30T06:33:16;97581.19;;;10.96;75.30
72210;BME280;60113;48.762;12.302;2023-04-30T06:35:41;97579.88;;;11.02;74.16
72210;BME280;60113;48.762;12.302;2023-04-30T06:38:07;97581.19;;;10.96;73.32
72210;BME280;60113;48.762;12.302;2023-04-30T06:40:33;97581.50;;;10.91;74.13
72210;BME280;60113;48.762;12.302;2023-04-30T06:42:59;97573.41;;;10.94;74.37
72210;BME280;60113;48.762;12.302;2023-04-30T06:45:24;97577.34;;;10.75;73.73
72210;BME280;60113;48.762;12.302;2023-04-30T06:47:50;97573.50;;;10.93;74.69
72210;BME280;60113;48.762;12.302;2023-04-30T06:50:17;97574.25;;;11.19;74.18
72210;BME280;60113;48.762;12.302;2023-04-30T06:52:42;97570.09;;;11.04;72.50
72210;BME280;60113;48.762;12.302;2023-04-30T06:55:08;97579.38;;;10.96;73.75
72210;BME280;60113;48.762;12.302;2023-04-30T06:57:34;97577.56;;;11.21;73.18
72210;BME280;60113;48.762;12.302;2023-04-30T07:00:04;97583.84;;;11.32;71.43
72210;BME280;60113;48.762;12.302;2023-04-30T07:02:29;97580.06;;;11.47;74.09
72210;BME280;60113;48.762;12.302;2023-04-30T07:04:55;97577.19;;;11.39;71.80
72210;BME280;60113;48.762;12.302;2023-04-30T07:07:20;97564.53;;;11.56;71.05
72210;BME280;60113;48.762;12.302;2023-04-30T07:09:47;97569.84;;;11.67;70.60
72210;BME280;60113;48.762;12.302;2023-04-30T07:12:12;97573.97;;;11.83;74.37
72210;BME280;60113;48.762;12.302;2023-04-30T07:14:38;97573.69;;;11.74;71.45
72210;BME280;60113;48.762;12.302;2023-04-30T07:17:03;97568.91;;;11.91;69.26
72210;BME280;60113;48.762;12.302;2023-04-30T07:19:29;97570.53;;;12.17;67.87
72210;BME280;60113;48.762;12.302;2023-04-30T07:21:54;97567.53;;;12.33;68.22
72210;BME280;60113;48.762;12.302;2023-04-30T07:24:20;97572.59;;;12.24;68.65
72210;BME280;60113;48.762;12.302;2023-04-30T07:26:45;97569.56;;;12.41;69.79
72210;BME280;60113;48.762;12.302;2023-04-30T07:29:11;97564.78;;;12.57;66.69
72210;BME280;60113;48.762;12.302;2023-04-30T07:31:37;97568.94;;;12.71;71.00
72210;BME280;60113;48.762;12.302;2023-04-30T07:34:03;97570.31;;;12.54;67.22
72210;BME280;60113;48.762;12.302;2023-04-30T07:36:28;97569.44;;;12.54;72.46
72210;BME280;60113;48.762;12.302;2023-04-30T07:38:54;97567.41;;;12.57;70.83
72210;BME280;60113;48.762;12.302;2023-04-30T07:41:19;97568.88;;;12.38;66.85
72210;BME280;60113;48.762;12.302;2023-04-30T07:43:45;97574.13;;;12.38;69.67
72210;BME280;60113;48.762;12.302;2023-04-30T07:46:11;97571.97;;;12.55;65.19
72210;BME280;60113;48.762;12.302;2023-04-30T07:48:37;97567.75;;;12.64;68.16
72210;BME280;60113;48.762;12.302;2023-04-30T07:51:03;97563.09;;;12.56;66.23
72210;BME280;60113;48.762;12.302;2023-04-30T07:53:29;97570.06;;;12.46;67.16
72210;BME280;60113;48.762;12.302;2023-04-30T07:55:54;97569.19;;;12.68;63.82
72210;BME280;60113;48.762;12.302;2023-04-30T07:58:20;97568.81;;;13.17;63.54
72210;BME280;60113;48.762;12.302;2023-04-30T08:00:45;97577.81;;;13.47;63.80
72210;BME280;60113;48.762;12.302;2023-04-30T08:03:11;97572.81;;;13.87;69.96
72210;BME280;60113;48.762;12.302;2023-04-30T08:05:36;97571.88;;;14.19;66.36
72210;BME280;60113;48.762;12.302;2023-04-30T08:08:02;97575.84;;;14.35;65.23
72210;BME280;60113;48.762;12.302;2023-04-30T08:10:28;97576.41;;;14.07;58.23
72210;BME280;60113;48.762;12.302;2023-04-30T08:12:54;97575.50;;;14.18;60.09
72210;BME280;60113;48.762;12.302;2023-04-30T08:15:20;97572.81;;;13.87;59.11
72210;BME280;60113;48.762;12.302;2023-04-30T08:17:48;97576.09;;;14.00;64.39
72210;BME280;60113;48.762;12.302;2023-04-30T08:20:14;97577.28;;;14.18;58.75
72210;BME280;60113;48.762;12.302;2023-04-30T08:22:40;97574.25;;;14.54;63.58
72210;BME280;60113;48.762;12.302;2023-04-30T08:25:05;97582.47;;;15.11;62.10
72210;BME280;60113;48.762;12.302;2023-04-30T08:27:31;97579.69;;;15.43;61.22
72210;BME280;60113;48.762;12.302;2023-04-30T08:29:57;97577.19;;;15.31;54.74
72210;BME280;60113;48.762;12.302;2023-04-30T08:32:22;97580.38;;;15.74;66.55
72210;BME280;60113;48.762;12.302;2023-04-30T08:34:48;97572.25;;;16.06;67.28
72210;BME280;60113;48.762;12.302;2023-04-30T08:37:17;97577.72;;;15.74;65.86
72210;BME280;60113;48.762;12.302;2023-04-30T08:39:42;97580.09;;;14.98;58.03
72210;BME280;60113;48.762;12.302;2023-04-30T08:42:08;97584.03;;;15.24;67.28
72210;BME280;60113;48.762;12.302;2023-04-30T08:44:40;97589.16;;;15.35;67.15
72210;BME280;60113;48.762;12.302;2023-04-30T08:47:10;97581.78;;;15.29;61.77
72210;BME280;60113;48.762;12.302;2023-04-30T08:49:39;97591.94;;;15.14;63.78
72210;BME280;60113;48.762;12.302;2023-04-30T08:52:05;97586.06;;;14.91;63.84
72210;BME280;60113;48.762;12.302;2023-04-30T08:54:33;97591.06;;;14.94;64.47
72210;BME280;60113;48.762;12.302;2023-04-30T08:56:59;97589.31;;;14.73;57.28
72210;BME280;60113;48.762;12.302;2023-04-30T08:59:26;97588.19;;;14.66;61.62
72210;BME280;60113;48.762;12.302;2023-04-30T09:01:51;97584.41;;;13.96;59.25
72210;BME280;60113;48.762;12.302;2023-04-30T09:04:16;97583.06;;;13.26;61.43
72210;BME280;60113;48.762;12.302;2023-04-30T09:06:42;97586.41;;;13.28;62.49
72210;BME280;60113;48.762;12.302;2023-04-30T09:09:11;97592.28;;;13.32;64.34
72210;BME280;60113;48.762;12.302;2023-04-30T09:11:38;97597.69;;;13.30;64.72
72210;BME280;60113;48.762;12.302;2023-04-30T09:14:04;97598.50;;;13.31;63.00
72210;BME280;60113;48.762;12.302;2023-04-30T09:16:56;97587.91;;;13.09;62.13
72210;BME280;60113;48.762;12.302;2023-04-30T09:19:26;97589.00;;;13.07;61.98
72210;BME280;60113;48.762;12.302;2023-04-30T09:21:52;97589.25;;;13.04;61.57
72210;BME280;60113;48.762;12.302;2023-04-30T09:24:18;97583.31;;;13.23;64.14
72210;BME280;60113;48.762;12.302;2023-04-30T09:26:44;97590.53;;;13.54;64.65
72210;BME280;60113;48.762;12.302;2023-04-30T09:29:12;97579.22;;;13.84;64.39
72210;BME280;60113;48.762;12.302;2023-04-30T09:31:38;97584.47;;;14.06;63.70
72210;BME280;60113;48.762;12.302;2023-04-30T09:34:04;97587.06;;;14.27;57.85
72210;BME280;60113;48.762;12.302;2023-04-30T09:36:30;97581.59;;;14.50;60.85
72210;BME280;60113;48.762;12.302;2023-04-30T09:39:05;97582.44;;;14.82;60.91
72210;BME280;60113;48.762;12.302;2023-04-30T09:41:31;97579.97;;;15.10;56.46
72210;BME280;60113;48.762;12.302;2023-04-30T09:43:56;97580.91;;;14.89;58.44
72210;BME280;60113;48.762;12.302;2023-04-30T09:46:34;97584.94;;;14.83;54.18
72210;BME280;60113;48.762;12.302;2023-04-30T09:49:04;97582.03;;;14.96;61.92
72210;BME280;60113;48.762;12.302;2023-04-30T09:51:29;97589.25;;;14.84;61.12
72210;BME280;60113;48.762;12.302;2023-04-30T09:53:56;97586.31;;;14.87;53.69
72210;BME280;60113;48.762;12.302;2023-04-30T09:56:23;97585.50;;;14.97;62.37
72210;BME280;60113;48.762;12.302;2023-04-30T09:58:50;97584.69;;;15.06;59.82
72210;BME280;60113;48.762;12.302;2023-04-30T10:01:19;97584.84;;;15.34;61.99
72210;BME280;60113;48.762;12.302;2023-04-30T10:03:44;97576.63;;;15.57;55.43
72210;BME280;60113;48.762;12.302;2023-04-30T10:06:12;97581.47;;;15.82;62.15
72210;BME280;60113;48.762;12.302;2023-04-30T10:08:42;97578.47;;;16.15;58.46
72210;BME280;60113;48.762;12.302;2023-04-30T10:11:12;97576.72;;;16.43;62.17
72210;BME280;60113;48.762;12.302;2023-04-30T10:14:02;97573.22;;;16.43;54.27
72210;BME280;60113;48.762;12.302;2023-04-30T10:16:50;97564.19;;;16.35;55.10
72210;BME280;60113;48.762;12.302;2023-04-30T10:19:22;97567.06;;;16.42;61.10
72210;BME280;60113;48.762;12.302;2023-04-30T10:21:47;97566.63;;;16.47;60.50
72210;BME280;60113;48.762;12.302;2023-04-30T10:24:14;97563.09;;;16.56;63.42
72210;BME280;60113;48.762;12.302;2023-04-30T10:26:42;97557.59;;;16.68;63.40
72210;BME280;60113;48.762;12.302;2023-04-30T10:29:12;97554.34;;;16.74;60.61
72210;BME280;60113;48.762;12.302;2023-04-30T10:31:38;97552.72;;;16.91;61.38
72210;BME280;60113;48.762;12.302;2023-04-30T10:34:18;97548.56;;;17.07;61.12
72210;BME280;60113;48.762;12.302;2023-04-30T10:36:47;97549.72;;;17.41;62.98
72210;BME280;60113;48.762;12.302;2023-04-30T10:39:20;97549.41;;;17.44;53.72
72210;BME280;60113;48.762;12.302;2023-04-30T10:41:47;97536.03;;;17.54;60.39
72210;BME280;60113;48.762;12.302;2023-04-30T10:44:13;97535.69;;;17.75;62.18
72210;BME280;60113;48.762;12.302;2023-04-30T10:46:39;97534.50;;;18.22;59.80
72210;BME280;60113;48.762;12.302;2023-04-30T10:49:05;97543.66;;;18.80;60.52
72210;BME280;60113;48.762;12.302;2023-04-30T10:51:47;97532.72;;;18.99;50.52
72210;BME280;60113;48.762;12.302;2023-04-30T10:54:15;97529.78;;;19.11;57.20
72210;BME280;60113;48.762;12.302;2023-04-30T10:56:44;97533.38;;;18.93;59.04
72210;BME280;60113;48.762;12.302;2023-04-30T10:59:10;97532.09;;;18.46;56.71
72210;BME280;60113;48.762;12.302;2023-04-30T11:01:59;97532.50;;;17.98;43.41
72210;BME280;60113;48.762;12.302;2023-04-30T11:04:25;97529.16;;;17.69;60.31
72210;BME280;60113;48.762;12.302;2023-04-30T11:09:16;97528.94;;;17.36;53.25
72210;BME280;60113;48.762;12.302;2023-04-30T11:11:45;97524.38;;;17.28;52.14
72210;BME280;60113;48.762;12.302;2023-04-30T11:14:11;97536.34;;;16.49;48.45
72210;BME280;60113;48.762;12.302;2023-04-30T11:16:37;97526.84;;;16.19;54.61
72210;BME280;60113;48.762;12.302;2023-04-30T11:19:09;97525.72;;;16.21;58.74
72210;BME280;60113;48.762;12.302;2023-04-30T11:21:39;97526.78;;;16.00;52.26
72210;BME280;60113;48.762;12.302;2023-04-30T11:24:05;97520.94;;;15.87;58.47
72210;BME280;60113;48.762;12.302;2023-04-30T11:27:06;97523.09;;;15.63;48.19
72210;BME280;60113;48.762;12.302;2023-04-30T11:29:32;97524.78;;;15.35;46.93
72210;BME280;60113;48.762;12.302;2023-04-30T11:32:03;97520.75;;;15.41;47.46
72210;BME280;60113;48.762;12.302;2023-04-30T11:34:29;97526.59;;;15.44;45.43
72210;BME280;60113;48.762;12.302;2023-04-30T11:36:58;97510.97;;;15.51;52.32
72210;BME280;60113;48.762;12.302;2023-04-30T11:39:25;97516.56;;;15.38;45.50
72210;BME280;60113;48.762;12.302;2023-04-30T11:41:52;97506.28;;;15.15;45.82
72210;BME280;60113;48.762;12.302;2023-04-30T11:44:24;97522.16;;;15.15;48.99
72210;BME280;60113;48.762;12.302;2023-04-30T11:46:50;97507.19;;;15.73;49.46
72210;BME280;60113;48.762;12.302;2023-04-30T11:49:15;97503.84;;;16.47;56.00
72210;BME280;60113;48.762;12.302;2023-04-30T11:51:41;97495.88;;;17.30;55.24
72210;BME280;60113;48.762;12.302;2023-04-30T11:54:07;97500.69;;;17.80;54.02
72210;BME280;60113;48.762;12.302;2023-04-30T11:56:36;97499.81;;;18.41;54.29
72210;BME280;60113;48.762;12.302;2023-04-30T11:59:08;97493.03;;;19.15;49.66
72210;BME280;60113;48.762;12.302;2023-04-30T12:01:35;97495.84;;;19.30;51.32
72210;BME280;60113;48.762;12.302;2023-04-30T12:04:01;97495.47;;;18.91;50.68
72210;BME280;60113;48.762;12.302;2023-04-30T12:06:31;97504.44;;;18.82;56.54
72210;BME280;60113;48.762;12.302;2023-04-30T12:09:00;97500.56;;;18.16;47.22
72210;BME280;60113;48.762;12.302;2023-04-30T12:11:29;97503.03;;;17.38;43.75
72210;BME280;60113;48.762;12.302;2023-04-30T12:14:06;97509.41;;;17.45;44.16
72210;BME280;60113;48.762;12.302;2023-04-30T12:16:46;97502.75;;;17.68;52.46
72210;BME280;60113;48.762;12.302;2023-04-30T12:19:15;97498.69;;;17.82;52.71
72210;BME280;60113;48.762;12.302;2023-04-30T12:21:42;97493.78;;;17.95;45.27
72210;BME280;60113;48.762;12.302;2023-04-30T12:24:15;97497.63;;;18.28;52.96
72210;BME280;60113;48.762;12.302;2023-04-30T12:26:41;97507.72;;;18.67;57.78
72210;BME280;60113;48.762;12.302;2023-04-30T12:29:17;97499.41;;;18.62;40.81
72210;BME280;60113;48.762;12.302;2023-04-30T12:31:43;97489.91;;;17.55;41.57
72210;BME280;60113;48.762;12.302;2023-04-30T12:34:11;97488.88;;;17.29;40.58
72210;BME280;60113;48.762;12.302;2023-04-30T12:36:38;97487.38;;;17.27;54.57
72210;BME280;60113;48.762;12.302;2023-04-30T12:39:11;97478.16;;;17.03;45.45
72210;BME280;60113;48.762;12.302;2023-04-30T12:41:47;97485.22;;;16.57;43.19
72210;BME280;60113;48.762;12.302;2023-04-30T12:46:41;97482.06;;;16.16;46.46
72210;BME280;60113;48.762;12.302;2023-04-30T12:49:07;97476.31;;;16.20;43.84
72210;BME280;60113;48.762;12.302;2023-04-30T12:51:35;97474.66;;;16.47;49.35
72210;BME280;60113;48.762;12.302;2023-04-30T12:54:01;97474.91;;;16.91;46.32
72210;BME280;60113;48.762;12.302;2023-04-30T12:56:26;97467.78;;;16.91;45.70
72210;BME280;60113;48.762;12.302;2023-04-30T12:58:52;97476.88;;;16.88;42.58
72210;BME280;60113;48.762;12.302;2023-04-30T13:01:21;97471.84;;;16.49;44.46
72210;BME280;60113;48.762;12.302;2023-04-30T13:03:49;97473.44;;;16.42;47.24
72210;BME280;60113;48.762;12.302;2023-04-30T13:06:14;97470.13;;;16.30;43.40
72210;BME280;60113;48.762;12.302;2023-04-30T13:08:40;97473.31;;;16.61;45.77
72210;BME280;60113;48.762;12.302;2023-04-30T13:11:06;97454.03;;;16.41;42.26